Time;durP1;ratioP1;P1;durP2;ratioP2;P2;SDS_P1;SDS_P2;PMS_P1;PMS_P2;Temp;Humidity;BMP_temperature;BMP_pressure;BME280_temperature;BME280_humidity;BME280_pressure;Samples;Min_cycle;Max_cycle;Signal;HPM_P1;HPM_P2
2021/06/28 00:00:15;;;;;;;10.35;8.90;;;;;;;19.83;80.29;99729.25;1764298;80;22326;-73
2021/06/28 00:02:41;;;;;;;9.75;8.70;;;;;;;19.81;80.33;99716.58;1750587;80;21020;-73
2021/06/28 00:05:10;;;;;;;12.03;8.68;;;;;;;19.80;80.40;99730.17;1710580;82;21051;-72
2021/06/28 00:07:38;;;;;;;9.55;7.62;;;;;;;19.81;80.42;99727.80;1717712;82;20964;-73
2021/06/28 00:10:06;;;;;;;9.60;8.68;;;;;;;19.78;80.49;99727.66;1686354;82;21033;-73
2021/06/28 00:12:33;;;;;;;9.50;8.65;;;;;;;19.73;80.60;99736.31;1715293;82;21820;-74
2021/06/28 00:15:00;;;;;;;9.83;8.70;;;;;;;19.70;80.74;99734.55;1721590;80;21001;-74
2021/06/28 00:17:26;;;;;;;10.35;8.60;;;;;;;19.68;80.79;99733.89;1707143;81;21036;-74
2021/06/28 00:19:53;;;;;;;9.38;8.00;;;;;;;19.68;80.94;99739.25;1722642;82;21475;-75
2021/06/28 00:22:20;;;;;;;11.55;8.50;;;;;;;19.65;80.99;99736.97;1742866;80;21379;-74
2021/06/28 00:24:47;;;;;;;8.80;7.90;;;;;;;19.64;81.15;99742.84;1747776;80;21790;-74
2021/06/28 00:27:13;;;;;;;8.75;7.85;;;;;;;19.63;81.21;99743.05;1714663;80;21014;-75
2021/06/28 00:29:39;;;;;;;9.03;7.80;;;;;;;19.64;81.16;99740.16;1739404;80;21010;-74
2021/06/28 00:32:06;;;;;;;11.43;7.87;;;;;;;19.67;81.12;99738.42;1716574;82;21558;-74
2021/06/28 00:34:33;;;;;;;9.73;7.83;;;;;;;19.67;81.05;99742.95;1693830;82;21469;-74
2021/06/28 00:37:03;;;;;;;10.25;7.97;;;;;;;19.69;81.00;99740.42;1720278;82;21077;-74
2021/06/28 00:39:31;;;;;;;9.45;7.87;;;;;;;19.69;80.93;99748.45;1726472;81;21076;-74
2021/06/28 00:41:58;;;;;;;10.53;7.22;;;;;;;19.70;80.88;99740.73;1716969;81;21583;-74
2021/06/28 00:44:24;;;;;;;10.90;7.60;;;;;;;19.68;80.84;99741.92;1711290;81;21741;-74
2021/06/28 00:46:50;;;;;;;11.12;7.20;;;;;;;19.66;80.78;99745.32;1665295;83;21071;-74
2021/06/28 00:49:17;;;;;;;7.85;6.97;;;;;;;19.66;80.75;99739.45;1657036;85;21858;-74
2021/06/28 00:51:44;;;;;;;7.12;6.40;;;;;;;19.65;80.65;99743.16;1698926;82;20953;-74
2021/06/28 00:54:11;;;;;;;9.80;6.40;;;;;;;19.67;80.57;99744.30;1712156;81;21040;-75
2021/06/28 00:56:37;;;;;;;10.70;6.53;;;;;;;19.65;80.51;99741.81;1737128;80;20969;-75
2021/06/28 00:59:04;;;;;;;7.28;6.58;;;;;;;19.62;80.45;99737.38;1698280;82;21072;-75
2021/06/28 01:01:31;;;;;;;7.25;6.50;;;;;;;19.61;80.38;99737.06;1701090;82;21774;-75
2021/06/28 01:03:57;;;;;;;7.35;6.08;;;;;;;19.57;80.36;99739.80;1681893;83;20953;-75
2021/06/28 01:06:24;;;;;;;7.40;6.58;;;;;;;19.51;80.44;99740.56;1700458;82;20994;-73
2021/06/28 01:08:51;;;;;;;7.20;6.50;;;;;;;19.45;80.52;99736.28;1709135;82;21129;-75
2021/06/28 01:11:17;;;;;;;7.85;5.97;;;;;;;19.42;80.57;99731.33;1683861;84;21482;-75
2021/06/28 01:13:44;;;;;;;9.40;6.62;;;;;;;19.41;80.61;99736.88;1683818;84;22495;-75
2021/06/28 01:16:12;;;;;;;9.18;6.50;;;;;;;19.42;80.60;99735.86;1734044;80;20954;-76
2021/06/28 01:18:39;;;;;;;6.78;5.70;;;;;;;19.39;80.60;99735.72;1715785;81;20965;-75
2021/06/28 01:21:06;;;;;;;8.10;6.15;;;;;;;19.38;80.57;99744.77;1733074;80;21226;-75
2021/06/28 01:23:33;;;;;;;6.85;6.17;;;;;;;19.36;80.59;99745.48;1738603;80;21150;-73
2021/06/28 01:26:04;;;;;;;6.50;5.90;;;;;;;19.34;80.59;99742.69;1717703;81;22446;-72
2021/06/28 01:28:31;;;;;;;6.80;5.85;;;;;;;19.31;80.66;99746.59;1772346;80;21032;-73
2021/06/28 01:30:59;;;;;;;6.85;6.25;;;;;;;19.29;80.74;99753.14;1750780;80;21158;-74
2021/06/28 01:33:28;;;;;;;8.23;6.47;;;;;;;19.26;80.80;99749.52;1751253;80;21308;-74
2021/06/28 01:35:55;;;;;;;7.85;6.35;;;;;;;19.24;80.82;99754.25;1751202;79;21017;-74
2021/06/28 01:38:22;;;;;;;8.63;6.95;;;;;;;19.21;80.98;99755.47;1695094;82;21792;-74
2021/06/28 01:40:48;;;;;;;7.62;6.83;;;;;;;19.20;81.03;99748.94;1714625;82;20970;-73
2021/06/28 01:43:15;;;;;;;7.80;6.47;;;;;;;19.19;81.10;99748.11;1747522;80;20973;-74
2021/06/28 01:45:41;;;;;;;8.53;6.25;;;;;;;19.19;81.10;99756.66;1737068;80;21032;-74
2021/06/28 01:48:08;;;;;;;8.73;6.97;;;;;;;19.16;81.12;99746.66;1752686;80;20961;-74
2021/06/28 01:50:37;;;;;;;7.10;6.05;;;;;;;19.18;81.14;99752.33;1727131;80;22235;-74
2021/06/28 01:53:05;;;;;;;8.95;6.62;;;;;;;19.18;81.19;99754.49;1707433;82;21582;-74
2021/06/28 01:55:33;;;;;;;7.08;6.37;;;;;;;19.18;81.18;99755.83;1718266;81;21099;-74
2021/06/28 01:58:02;;;;;;;7.00;6.30;;;;;;;19.15;81.23;99756.22;1712898;82;21079;-74
2021/06/28 02:00:39;;;;;;;7.87;7.00;;;;;;;19.14;81.30;99759.92;1715280;82;21455;-74
2021/06/28 02:03:10;;;;;;;9.08;6.47;;;;;;;19.12;81.33;99757.95;1683761;84;21814;-74
2021/06/28 02:05:44;;;;;;;7.50;6.70;;;;;;;19.09;81.36;99754.30;1741845;80;21611;-74
2021/06/28 02:08:12;;;;;;;7.28;6.10;;;;;;;19.12;81.36;99762.80;1724577;80;21190;-74
2021/06/28 02:10:41;;;;;;;7.58;6.55;;;;;;;19.10;81.35;99755.45;1761436;79;20953;-74
2021/06/28 02:13:08;;;;;;;7.17;6.47;;;;;;;19.11;81.29;99753.62;1731611;80;20964;-74
2021/06/28 02:15:36;;;;;;;8.45;6.53;;;;;;;19.13;81.26;99752.41;1700170;81;21590;-73
2021/06/28 02:18:03;;;;;;;9.40;6.40;;;;;;;19.16;81.21;99756.54;1745123;81;20913;-74
2021/06/28 02:20:30;;;;;;;8.93;6.58;;;;;;;19.16;81.11;99753.35;1743885;81;20960;-74
2021/06/28 02:23:22;;;;;;;8.30;6.87;;;;;;;19.18;81.07;99754.49;1729306;81;20957;-74
2021/06/28 02:25:54;;;;;;;9.33;7.20;;;;;;;19.19;81.03;99758.00;1710726;82;20957;-74
2021/06/28 02:28:21;;;;;;;8.58;6.70;;;;;;;19.19;80.95;99758.83;1718286;82;22390;-75
2021/06/28 02:30:48;;;;;;;7.65;6.95;;;;;;;19.16;80.92;99753.86;1719068;80;21027;-74
2021/06/28 02:33:14;;;;;;;7.50;6.72;;;;;;;19.15;80.88;99752.20;1725989;81;20994;-75
2021/06/28 02:35:41;;;;;;;8.58;6.80;;;;;;;19.16;80.85;99748.00;1742915;80;21434;-74
2021/06/28 02:38:07;;;;;;;8.23;7.42;;;;;;;19.15;80.81;99754.89;1711067;83;20972;-74
2021/06/28 02:40:33;;;;;;;9.05;7.30;;;;;;;19.14;80.84;99753.23;1710596;82;21891;-74
2021/06/28 02:43:00;;;;;;;8.15;7.35;;;;;;;19.14;80.82;99751.89;1713443;79;21063;-74
2021/06/28 02:45:26;;;;;;;8.30;7.50;;;;;;;19.14;80.84;99751.89;1718435;79;20960;-74
2021/06/28 02:47:53;;;;;;;9.43;7.60;;;;;;;19.18;80.86;99757.17;1723939;82;20960;-74
2021/06/28 02:50:19;;;;;;;7.60;6.90;;;;;;;19.21;80.78;99752.79;1695059;82;20961;-74
2021/06/28 02:52:46;;;;;;;10.03;7.17;;;;;;;19.23;80.70;99757.95;1708739;81;21850;-74
2021/06/28 02:55:13;;;;;;;9.50;7.47;;;;;;;19.24;80.67;99752.91;1747171;80;21394;-74
2021/06/28 02:57:40;;;;;;;9.30;7.20;;;;;;;19.28;80.58;99758.18;1741776;81;21017;-74
2021/06/28 03:00:10;;;;;;;10.63;7.30;;;;;;;19.28;80.52;99768.38;1713178;82;21454;-74
2021/06/28 03:02:37;;;;;;;9.25;7.08;;;;;;;19.29;80.49;99759.32;1759678;80;21397;-74
2021/06/28 03:05:05;;;;;;;10.70;7.35;;;;;;;19.31;80.44;99765.34;1725960;80;22452;-74
2021/06/28 03:07:32;;;;;;;8.48;6.92;;;;;;;19.33;80.42;99763.28;1754201;80;21015;-73
2021/06/28 03:09:58;;;;;;;7.75;6.95;;;;;;;19.35;80.45;99761.75;1713236;82;21008;-74
2021/06/28 03:12:25;;;;;;;8.35;7.08;;;;;;;19.37;80.41;99761.87;1748129;80;21512;-72
2021/06/28 03:14:51;;;;;;;7.30;6.60;;;;;;;19.40;80.35;99768.20;1728808;81;21024;-75
2021/06/28 03:17:17;;;;;;;7.15;6.47;;;;;;;19.43;80.31;99766.97;1734560;81;21795;-75
2021/06/28 03:19:44;;;;;;;7.28;6.42;;;;;;;19.45;80.26;99775.13;1730768;81;21064;-75
2021/06/28 03:22:11;;;;;;;8.05;7.00;;;;;;;19.48;80.17;99774.41;1716156;81;21056;-75
2021/06/28 03:24:38;;;;;;;8.23;6.55;;;;;;;19.48;79.96;99778.43;1710924;82;21087;-76
2021/06/28 03:27:05;;;;;;;7.67;6.97;;;;;;;19.49;80.01;99780.08;1718202;82;21064;-75
2021/06/28 03:29:31;;;;;;;7.87;6.65;;;;;;;19.52;80.00;99789.91;1715959;82;21816;-75
2021/06/28 03:31:58;;;;;;;8.83;7.20;;;;;;;19.57;79.88;99782.14;1716698;82;20949;-75
2021/06/28 03:34:25;;;;;;;7.62;6.92;;;;;;;19.61;79.76;99783.94;1719262;82;21170;-75
2021/06/28 03:36:51;;;;;;;9.05;7.53;;;;;;;19.65;79.66;99782.52;1708890;82;21178;-75
2021/06/28 03:39:17;;;;;;;7.87;7.00;;;;;;;19.65;79.45;99783.34;1683897;84;21032;-75
2021/06/28 03:41:44;;;;;;;8.20;7.35;;;;;;;19.68;79.36;99772.73;1713253;82;22671;-75
2021/06/28 03:44:10;;;;;;;7.97;7.17;;;;;;;19.68;79.15;99783.45;1713065;82;21503;-75
2021/06/28 03:46:37;;;;;;;9.40;7.72;;;;;;;19.69;79.02;99777.10;1736827;80;21091;-75
2021/06/28 03:49:04;;;;;;;8.00;7.15;;;;;;;19.71;78.97;99780.41;1754952;78;21466;-75
2021/06/28 03:51:31;;;;;;;8.05;7.03;;;;;;;19.75;78.89;99788.36;1738359;80;21016;-76
2021/06/28 03:53:57;;;;;;;7.65;6.62;;;;;;;19.78;78.58;99785.28;1708784;81;21804;-75
2021/06/28 03:56:23;;;;;;;7.65;6.90;;;;;;;19.78;78.34;99787.13;1720924;81;21067;-76
2021/06/28 03:58:50;;;;;;;7.50;6.70;;;;;;;19.81;78.18;99785.42;1716895;82;21008;-76
2021/06/28 04:01:16;;;;;;;7.70;7.00;;;;;;;19.83;78.14;99784.20;1716363;82;21004;-75
2021/06/28 04:03:43;;;;;;;8.45;6.92;;;;;;;19.85;77.88;99787.50;1717014;82;21454;-76
2021/06/28 04:06:10;;;;;;;7.62;6.87;;;;;;;19.84;77.70;99789.04;1716886;82;21831;-76
2021/06/28 04:08:38;;;;;;;6.92;6.28;;;;;;;19.85;77.71;99784.82;1714041;82;20969;-76
2021/06/28 04:11:06;;;;;;;7.45;6.72;;;;;;;19.88;77.67;99791.15;1706771;82;21444;-76
2021/06/28 04:13:33;;;;;;;9.73;7.00;;;;;;;19.91;77.45;99784.05;1685976;83;21085;-76
2021/06/28 04:15:59;;;;;;;8.45;6.80;;;;;;;19.93;77.07;99788.69;1696257;83;21080;-75
2021/06/28 04:18:26;;;;;;;7.22;6.53;;;;;;;19.97;76.87;99789.94;1740248;81;21849;-76
2021/06/28 04:20:53;;;;;;;6.50;5.62;;;;;;;20.01;76.62;99785.03;1766353;80;20997;-76
2021/06/28 04:23:19;;;;;;;8.13;6.25;;;;;;;20.05;76.42;99784.94;1744492;80;21112;-76
2021/06/28 04:25:46;;;;;;;7.22;6.20;;;;;;;20.10;76.13;99772.30;1741407;82;21554;-75
2021/06/28 04:28:12;;;;;;;7.20;5.65;;;;;;;20.15;75.98;99780.56;1736929;81;21442;-75
2021/06/28 04:30:39;;;;;;;6.75;5.40;;;;;;;20.19;75.81;99783.18;1751055;80;22623;-75
2021/06/28 04:33:05;;;;;;;6.40;5.80;;;;;;;20.21;75.38;99784.62;1727510;82;21052;-75
2021/06/28 04:35:32;;;;;;;6.83;5.83;;;;;;;20.23;75.02;99777.20;1729057;82;21084;-75
2021/06/28 04:37:58;;;;;;;5.45;4.75;;;;;;;20.26;74.88;99779.48;1721915;82;21472;-76
2021/06/28 04:40:29;;;;;;;8.78;5.65;;;;;;;20.28;74.71;99783.33;1729506;82;21455;-76
2021/06/28 04:42:57;;;;;;;6.60;4.97;;;;;;;20.30;74.63;99796.84;1716486;82;21839;-76
2021/06/28 04:45:24;;;;;;;6.65;5.78;;;;;;;20.32;74.33;99786.42;1703952;82;21509;-75
2021/06/28 04:47:51;;;;;;;6.55;5.75;;;;;;;20.30;73.99;99793.34;1685772;83;21028;-75
2021/06/28 04:50:21;;;;;;;7.53;6.67;;;;;;;20.26;73.67;99809.49;1751288;80;21059;-76
2021/06/28 04:52:47;;;;;;;8.83;6.20;;;;;;;20.22;73.74;99794.33;1749786;80;21076;-75
2021/06/28 04:55:14;;;;;;;8.08;6.15;;;;;;;20.23;73.69;99807.22;1750568;80;21868;-76
2021/06/28 04:57:43;;;;;;;8.23;5.75;;;;;;;20.22;73.64;99806.39;1747353;80;20961;-75
2021/06/28 05:00:12;;;;;;;6.67;5.97;;;;;;;20.28;73.78;99803.44;1715195;81;21522;-75
2021/06/28 05:02:39;;;;;;;7.85;6.33;;;;;;;20.34;73.65;99802.63;1691869;83;21074;-75
2021/06/28 05:05:06;;;;;;;8.93;6.17;;;;;;;20.37;73.52;99806.27;1688401;83;21500;-75
2021/06/28 05:07:33;;;;;;;7.45;6.65;;;;;;;20.41;73.37;99802.16;1737090;80;22423;-76
2021/06/28 05:09:59;;;;;;;10.08;7.20;;;;;;;20.46;73.25;99802.91;1717582;82;21409;-76
2021/06/28 05:12:26;;;;;;;7.58;6.80;;;;;;;20.49;72.92;99804.70;1737166;81;21005;-76
2021/06/28 05:14:52;;;;;;;8.30;7.28;;;;;;;20.51;72.82;99810.69;1740565;80;20965;-77
2021/06/28 05:17:19;;;;;;;7.53;6.83;;;;;;;20.51;72.56;99817.91;1741797;80;21417;-76
2021/06/28 05:19:46;;;;;;;7.58;6.67;;;;;;;20.52;72.70;99817.70;1740310;80;22542;-76
2021/06/28 05:22:13;;;;;;;8.10;7.28;;;;;;;20.57;72.67;99815.27;1750660;80;20988;-76
2021/06/28 05:24:39;;;;;;;8.10;7.30;;;;;;;20.61;72.64;99823.73;1750225;80;20964;-76
2021/06/28 05:27:06;;;;;;;9.98;6.78;;;;;;;20.62;72.40;99824.56;1717330;82;20977;-76
2021/06/28 05:29:33;;;;;;;7.08;6.30;;;;;;;20.62;72.51;99825.38;1729492;82;21015;-77
2021/06/28 05:32:00;;;;;;;7.05;6.28;;;;;;;20.62;72.40;99833.44;1715895;82;21794;-77
2021/06/28 05:34:26;;;;;;;7.12;5.72;;;;;;;20.63;72.17;99831.58;1725566;81;21531;-76
2021/06/28 05:36:54;;;;;;;8.33;6.08;;;;;;;20.59;72.25;99832.50;1715643;81;21136;-76
2021/06/28 05:39:21;;;;;;;6.50;5.92;;;;;;;20.61;72.40;99834.98;1714972;82;21051;-76
2021/06/28 05:41:47;;;;;;;7.33;5.90;;;;;;;20.64;72.24;99838.59;1713053;80;21089;-76
2021/06/28 05:44:14;;;;;;;6.12;5.53;;;;;;;20.64;72.28;99842.63;1688070;84;21846;-76
2021/06/28 05:46:40;;;;;;;5.90;5.40;;;;;;;20.66;72.28;99842.77;1671120;85;21025;-77
2021/06/28 05:49:07;;;;;;;6.17;5.67;;;;;;;20.69;72.38;99836.98;1704363;82;21112;-77
2021/06/28 05:51:34;;;;;;;9.83;5.62;;;;;;;20.75;72.39;99841.56;1751659;80;21075;-77
2021/06/28 05:54:00;;;;;;;7.97;5.58;;;;;;;20.72;71.51;99836.57;1754867;80;21060;-76
2021/06/28 05:56:27;;;;;;;6.08;5.47;;;;;;;20.70;71.71;99835.95;1751697;80;21822;-76
2021/06/28 05:58:53;;;;;;;10.75;5.28;;;;;;;20.69;71.46;99839.67;1715984;81;21494;-77
2021/06/28 06:01:20;;;;;;;5.95;5.45;;;;;;;20.68;71.32;99842.55;1732378;81;21482;-77
2021/06/28 06:03:47;;;;;;;6.42;5.10;;;;;;;20.69;71.24;99841.52;1699319;83;21065;-76
2021/06/28 06:06:13;;;;;;;5.80;5.28;;;;;;;20.75;71.35;99838.88;1652540;86;21030;-76
2021/06/28 06:08:41;;;;;;;6.67;5.95;;;;;;;20.85;71.49;99833.95;1726751;81;20929;-77
2021/06/28 06:11:08;;;;;;;6.90;6.20;;;;;;;20.99;71.33;99841.52;1722448;80;21413;-76
2021/06/28 06:13:34;;;;;;;6.80;6.20;;;;;;;21.18;71.24;99832.38;1735267;80;21005;-77
2021/06/28 06:16:01;;;;;;;11.65;6.90;;;;;;;21.39;70.57;99838.42;1717378;82;20989;-76
2021/06/28 06:18:28;;;;;;;7.85;6.65;;;;;;;21.54;68.58;99833.39;1715244;82;21086;-77
2021/06/28 06:20:54;;;;;;;9.30;6.70;;;;;;;21.60;68.10;99841.95;1699791;81;21839;-76
2021/06/28 06:23:21;;;;;;;7.12;6.42;;;;;;;21.64;67.66;99843.21;1718657;82;20961;-76
2021/06/28 06:25:48;;;;;;;6.65;5.97;;;;;;;21.63;67.45;99842.39;1719401;81;20950;-76
2021/06/28 06:28:15;;;;;;;8.30;7.10;;;;;;;21.66;67.55;99842.48;1702461;82;21178;-76
2021/06/28 06:30:42;;;;;;;8.48;7.65;;;;;;;21.68;67.34;99851.16;1697527;82;21688;-76
2021/06/28 06:33:10;;;;;;;7.80;7.00;;;;;;;21.74;67.45;99849.00;1717323;82;21863;-76
2021/06/28 06:35:36;;;;;;;8.90;7.83;;;;;;;21.83;67.34;99848.28;1763406;80;21471;-76
2021/06/28 06:38:03;;;;;;;8.18;7.20;;;;;;;21.89;66.40;99855.49;1737357;82;21041;-76
2021/06/28 06:40:30;;;;;;;10.25;7.53;;;;;;;21.83;65.86;99849.10;1762533;79;21102;-76
2021/06/28 06:42:57;;;;;;;7.62;6.83;;;;;;;21.82;66.05;99853.34;1740516;81;20983;-76
2021/06/28 06:45:26;;;;;;;7.70;6.97;;;;;;;21.82;66.01;99857.38;1711906;81;21839;-76
2021/06/28 06:47:52;;;;;;;6.50;5.90;;;;;;;21.82;66.02;99868.13;1720790;81;21067;-77
2021/06/28 06:50:18;;;;;;;5.87;5.28;;;;;;;21.77;65.58;99871.42;1697401;83;21025;-76
2021/06/28 06:52:48;;;;;;;5.62;4.90;;;;;;;21.70;65.73;99859.31;1702009;82;21018;-78
2021/06/28 06:55:16;;;;;;;5.25;4.75;;;;;;;21.61;65.78;99862.41;1727863;81;20966;-76
2021/06/28 06:57:42;;;;;;;4.87;4.25;;;;;;;21.53;65.85;99871.53;1748286;81;21841;-76
2021/06/28 07:00:16;;;;;;;5.78;4.75;;;;;;;21.53;66.21;99868.84;1720620;82;20957;-76
2021/06/28 07:02:43;;;;;;;5.10;4.60;;;;;;;21.63;66.28;99867.92;1716348;82;21084;-78
2021/06/28 07:05:10;;;;;;;4.92;4.40;;;;;;;21.77;65.68;99866.56;1756739;80;21005;-78
2021/06/28 07:07:37;;;;;;;5.62;4.20;;;;;;;21.83;65.66;99866.58;1719064;82;20996;-77
2021/06/28 07:10:06;;;;;;;6.15;5.33;;;;;;;21.92;65.82;99873.92;1718634;81;21785;-78
2021/06/28 07:12:33;;;;;;;5.70;4.40;;;;;;;21.97;65.62;99883.00;1729233;81;21028;-78
2021/06/28 07:14:59;;;;;;;6.00;4.00;;;;;;;21.99;65.22;99882.78;1714768;82;21025;-73
2021/06/28 07:17:26;;;;;;;4.50;4.05;;;;;;;21.98;64.54;99874.41;1729300;80;21015;-83
2021/06/28 07:19:52;;;;;;;4.90;4.03;;;;;;;22.01;64.55;99887.47;1746861;80;21043;-83
2021/06/28 07:22:19;;;;;;;7.17;3.90;;;;;;;22.05;64.38;99875.24;1715981;82;22674;-86
2021/06/28 07:24:46;;;;;;;7.08;3.92;;;;;;;22.20;64.66;99874.55;1719001;81;21056;-78
2021/06/28 07:27:12;;;;;;;4.83;3.77;;;;;;;22.36;63.01;99880.50;1725444;82;21092;-84
2021/06/28 07:29:39;;;;;;;4.25;3.45;;;;;;;22.38;62.52;99867.66;1746702;81;20946;-75
2021/06/28 07:32:06;;;;;;;4.72;3.80;;;;;;;22.43;62.85;99876.77;1727843;81;21237;-74
2021/06/28 07:34:33;;;;;;;5.12;3.90;;;;;;;22.51;62.54;99873.02;1745306;81;21779;-75
2021/06/28 07:36:59;;;;;;;4.20;3.72;;;;;;;22.57;62.80;99873.50;1701138;82;21091;-74
2021/06/28 07:39:26;;;;;;;3.98;3.58;;;;;;;22.61;62.54;99872.58;1707645;82;21091;-75
2021/06/28 07:41:53;;;;;;;4.97;3.60;;;;;;;22.61;62.64;99876.09;1729199;82;21010;-75
2021/06/28 07:44:22;;;;;;;4.15;3.80;;;;;;;22.63;62.95;99874.01;1725720;81;21558;-75
2021/06/28 07:46:48;;;;;;;6.72;3.70;;;;;;;22.67;63.26;99874.40;1716718;82;21840;-75
2021/06/28 07:49:15;;;;;;;5.95;3.30;;;;;;;22.71;63.03;99876.47;1751491;80;20984;-76
2021/06/28 07:51:42;;;;;;;4.22;3.47;;;;;;;22.70;62.68;99876.16;1711745;82;21511;-75
2021/06/28 07:54:09;;;;;;;4.28;3.58;;;;;;;22.75;63.13;99868.27;1683559;84;20969;-74
2021/06/28 07:56:35;;;;;;;6.20;3.72;;;;;;;22.89;62.39;99864.22;1742818;81;20989;-75
2021/06/28 07:59:02;;;;;;;4.87;3.30;;;;;;;23.07;62.58;99869.72;1707101;83;21767;-76
2021/06/28 08:01:33;;;;;;;4.70;2.92;;;;;;;23.18;61.13;99873.60;1719805;82;20985;-77
2021/06/28 08:03:56;;;;;;;3.67;3.25;;;;;;;23.20;60.97;99875.55;1724866;82;21642;-76
2021/06/28 08:06:23;;;;;;;8.15;3.60;;;;;;;23.31;60.48;99883.77;1716314;82;21618;-77
2021/06/28 08:08:51;;;;;;;3.37;3.08;;;;;;;23.38;59.99;99878.34;1717609;82;20999;-77
2021/06/28 08:11:20;;;;;;;5.10;3.25;;;;;;;23.35;59.94;99882.80;1717467;82;21834;-78
2021/06/28 08:13:48;;;;;;;3.90;3.42;;;;;;;23.25;60.27;99885.14;1718747;81;21056;-76
2021/06/28 08:16:17;;;;;;;3.47;3.17;;;;;;;23.18;60.51;99881.16;1726829;81;20876;-75
2021/06/28 08:18:47;;;;;;;5.92;3.30;;;;;;;23.09;60.06;99887.31;1717245;82;20982;-77
2021/06/28 08:21:13;;;;;;;4.10;3.50;;;;;;;23.11;60.70;99885.75;1724163;82;21001;-75
2021/06/28 08:23:40;;;;;;;3.72;3.20;;;;;;;23.22;61.03;99880.20;1713081;82;21777;-76
2021/06/28 08:26:06;;;;;;;3.40;3.10;;;;;;;23.36;60.53;99876.39;1715988;82;21155;-77
2021/06/28 08:28:33;;;;;;;3.27;2.98;;;;;;;23.56;60.16;99878.95;1749215;80;21055;-77
2021/06/28 08:31:00;;;;;;;8.18;3.15;;;;;;;23.73;59.41;99881.95;1750657;80;21142;-77
2021/06/28 08:33:26;;;;;;;5.60;3.12;;;;;;;23.81;58.38;99891.95;1751031;80;21056;-76
2021/06/28 08:35:54;;;;;;;5.50;3.12;;;;;;;23.75;58.77;99884.75;1756863;79;21793;-77
2021/06/28 08:38:22;;;;;;;4.75;3.20;;;;;;;23.76;58.83;99886.41;1759206;80;21420;-76
2021/06/28 08:40:49;;;;;;;3.75;2.90;;;;;;;23.77;58.29;99883.18;1773111;79;21053;-76
2021/06/28 08:43:16;;;;;;;4.60;3.30;;;;;;;23.73;58.72;99896.78;1750160;80;20977;-76
2021/06/28 08:45:43;;;;;;;4.78;2.90;;;;;;;23.75;58.50;99890.15;1709987;81;20973;-75
2021/06/28 08:48:10;;;;;;;3.75;2.77;;;;;;;23.85;57.56;99888.30;1726892;81;22694;-77
2021/06/28 08:50:40;;;;;;;4.25;2.90;;;;;;;23.98;57.78;99890.36;1754568;81;20938;-76
2021/06/28 08:53:08;;;;;;;3.35;2.80;;;;;;;24.13;57.70;99892.73;1749212;81;21159;-76
2021/06/28 08:55:35;;;;;;;3.90;2.77;;;;;;;24.22;57.48;99904.89;1748936;81;21084;-75
2021/06/28 08:58:04;;;;;;;4.80;2.77;;;;;;;24.17;57.20;99905.24;1696210;83;21381;-77
2021/06/28 09:00:31;;;;;;;5.05;3.10;;;;;;;24.17;56.88;99908.77;1679812;83;21857;-77
2021/06/28 09:03:00;;;;;;;5.47;3.10;;;;;;;24.22;57.10;99907.59;1746516;80;21460;-76
2021/06/28 09:05:27;;;;;;;3.95;2.90;;;;;;;24.34;56.74;99918.50;1753818;80;21029;-76
2021/06/28 09:08:11;;;;;;;5.03;3.25;;;;;;;24.51;57.62;99914.68;1772746;80;21476;-77
2021/06/28 09:10:40;;;;;;;5.95;2.62;;;;;;;24.60;56.27;99910.64;1747656;81;21503;-82
2021/06/28 09:13:07;;;;;;;4.47;3.00;;;;;;;24.52;56.20;99915.83;1753216;81;21797;-79
2021/06/28 09:15:39;;;;;;;3.45;2.90;;;;;;;24.42;55.93;99922.27;1713281;82;20977;-79
2021/06/28 09:18:23;;;;;;;3.98;3.08;;;;;;;24.25;56.14;99919.28;1707239;80;20968;-78
2021/06/28 09:21:08;;;;;;;5.47;2.92;;;;;;;24.21;56.49;99919.93;1716939;82;21075;-79
2021/06/28 09:23:40;;;;;;;3.83;3.30;;;;;;;24.41;55.99;99911.67;1714092;82;20966;-79
2021/06/28 09:26:12;;;;;;;3.55;2.90;;;;;;;24.66;56.34;99915.67;1718221;82;21840;-80
2021/06/28 09:28:43;;;;;;;5.00;2.70;;;;;;;24.92;55.38;99922.13;1718001;81;21016;-79
2021/06/28 09:31:19;;;;;;;5.47;2.95;;;;;;;25.12;54.03;99915.16;1718926;82;21107;-77
2021/06/28 09:34:08;;;;;;;3.40;2.62;;;;;;;25.12;53.38;99916.50;1715026;82;21095;-77
2021/06/28 09:36:54;;;;;;;3.15;2.75;;;;;;;25.15;53.11;99901.17;1677776;83;21103;-81
2021/06/28 09:39:32;;;;;;;3.62;2.72;;;;;;;25.21;53.01;99908.91;1693258;84;22225;-81
2021/06/28 09:42:12;;;;;;;4.42;3.00;;;;;;;25.26;52.89;99907.16;1688800;82;20973;-81
2021/06/28 09:45:06;;;;;;;3.52;2.87;;;;;;;25.29;52.65;99901.84;1687224;82;21001;-81
2021/06/28 09:47:33;;;;;;;3.08;2.50;;;;;;;25.22;52.39;99899.75;1694192;82;21452;-81
2021/06/28 09:50:19;;;;;;;4.25;2.90;;;;;;;25.09;52.91;99906.98;1747040;80;20944;-80
2021/06/28 09:52:53;;;;;;;5.90;3.02;;;;;;;25.05;53.44;99910.35;1750248;80;22250;-80
2021/06/28 09:55:33;;;;;;;3.80;3.10;;;;;;;24.94;53.77;99907.04;1713926;82;21059;-81
2021/06/28 09:58:13;;;;;;;3.90;2.83;;;;;;;24.94;53.97;99899.76;1749476;80;21252;-79
2021/06/28 10:00:50;;;;;;;5.28;2.90;;;;;;;25.04;53.63;99897.90;1709066;82;21257;-79
2021/06/28 10:03:44;;;;;;;13.25;3.12;;;;;;;25.14;53.54;99888.72;1715271;82;21089;-79
2021/06/28 10:06:16;;;;;;;3.30;2.98;;;;;;;25.36;53.72;99897.14;1713465;82;21920;-80
2021/06/28 10:08:45;;;;;;;4.47;3.12;;;;;;;25.64;53.23;99889.22;1694608;83;21476;-78
2021/06/28 10:11:15;;;;;;;3.37;3.08;;;;;;;25.86;52.54;99900.34;1698620;83;20889;-80
2021/06/28 10:13:54;;;;;;;3.15;2.85;;;;;;;25.91;51.25;99905.89;1694192;84;21080;-80
2021/06/28 10:16:24;;;;;;;4.33;2.77;;;;;;;25.83;51.11;99910.82;1697082;83;20947;-76
2021/06/28 10:18:55;;;;;;;5.15;2.92;;;;;;;25.79;51.44;99916.41;1719302;82;22380;-77
2021/06/28 10:21:22;;;;;;;5.17;2.80;;;;;;;25.92;50.27;99909.42;1715765;82;21580;-82
2021/06/28 10:23:49;;;;;;;9.83;2.90;;;;;;;25.93;50.25;99907.83;1717180;81;21064;-83
2021/06/28 10:26:16;;;;;;;3.72;2.80;;;;;;;26.04;51.43;99902.66;1729293;81;21111;-83
2021/06/28 10:28:43;;;;;;;5.17;2.98;;;;;;;26.27;50.55;99900.52;1739504;81;21075;-83
2021/06/28 10:31:11;;;;;;;3.80;2.75;;;;;;;26.47;50.30;99910.47;1712751;83;21785;-86
2021/06/28 10:33:38;;;;;;;3.98;2.70;;;;;;;26.70;49.67;99907.72;1751095;81;21014;-84
2021/06/28 10:36:11;;;;;;;4.62;3.00;;;;;;;26.90;49.42;99909.20;1697352;82;20973;-86
2021/06/28 10:38:47;;;;;;;5.65;3.00;;;;;;;27.02;47.85;99912.70;1749270;81;20964;-86
2021/06/28 10:41:35;;;;;;;3.02;2.75;;;;;;;26.98;48.48;99911.02;1714939;82;21078;-86
2021/06/28 10:44:01;;;;;;;3.37;2.80;;;;;;;26.91;48.77;99904.89;1702243;83;21837;-86
2021/06/28 10:46:37;;;;;;;6.83;2.95;;;;;;;27.01;49.19;99901.56;1692213;83;21479;-86
2021/06/28 10:49:05;;;;;;;3.85;2.62;;;;;;;27.21;48.36;99899.81;1713024;81;21023;-85
2021/06/28 10:51:48;;;;;;;2.87;2.30;;;;;;;27.27;47.56;99909.70;1687676;83;21107;-86
2021/06/28 10:54:19;;;;;;;4.53;2.90;;;;;;;27.13;47.45;99912.42;1688265;83;21428;-85
2021/06/28 10:56:52;;;;;;;3.37;2.72;;;;;;;26.76;46.97;99918.97;1688290;83;21754;-85
2021/06/28 10:59:23;;;;;;;3.30;2.90;;;;;;;26.36;48.06;99922.94;1716850;81;21107;-85
2021/06/28 11:01:59;;;;;;;4.37;2.90;;;;;;;26.00;49.08;99915.84;1739174;80;21064;-85
2021/06/28 11:04:38;;;;;;;3.77;3.02;;;;;;;25.73;49.61;99925.45;1718602;82;20957;-85
2021/06/28 11:07:11;;;;;;;4.28;2.77;;;;;;;25.68;50.62;99919.36;1720949;82;21100;-85
2021/06/28 11:09:52;;;;;;;5.90;3.50;;;;;;;25.93;50.44;99905.12;1752429;80;21763;-86
2021/06/28 11:12:23;;;;;;;4.40;2.65;;;;;;;26.25;48.89;99917.00;1695344;82;21468;-84
2021/06/28 11:15:01;;;;;;;4.42;2.35;;;;;;;26.36;48.50;99908.58;1705682;82;21473;-84
2021/06/28 11:17:50;;;;;;;5.40;2.65;;;;;;;26.54;48.52;99912.54;1733463;81;21673;-85
2021/06/28 11:20:38;;;;;;;3.42;2.37;;;;;;;26.86;49.13;99912.12;1747426;80;21059;-86
2021/06/28 11:23:17;;;;;;;6.72;3.10;;;;;;;27.20;47.39;99909.02;1718894;81;22429;-85
2021/06/28 11:25:56;;;;;;;3.90;2.40;;;;;;;27.24;47.05;99911.55;1716578;82;20977;-85
2021/06/28 11:28:27;;;;;;;3.02;2.30;;;;;;;27.24;47.39;99911.55;1748950;80;21040;-86
2021/06/28 11:31:07;;;;;;;;;;;;;;;27.14;47.35;99911.36;1748922;80;21482;-85
2021/06/28 11:33:50;;;;;;;4.90;2.52;;;;;;;26.98;48.02;99919.67;1734852;80;20133;-85
2021/06/28 11:36:29;;;;;;;3.12;2.40;;;;;;;26.98;49.01;99921.03;1716135;81;21846;-84
2021/06/28 11:39:00;;;;;;;4.22;2.40;;;;;;;26.97;48.34;99916.67;1699936;82;21027;-79
2021/06/28 11:41:28;;;;;;;2.47;2.27;;;;;;;27.06;49.12;99922.05;1733667;82;21020;-82